Terminal Aerodrome Forecast
Issued by NWS Wilmington, NC

Home | Current Version | Previous Version | Text Only | Print | Product List | Glossary On
Versions: 1 2 3 4 5 6 7 8 9 10 11 12 13 14 15 16
000
FTUS42 KILM 250500
TAFFLO
TAF
KFLO 250538Z 2506/2606 16009KT P6SM SCT035 SCT250
      TEMPO 2509/2513 6SM BR BKN015
     FM251300 19012G22KT P6SM VCSH SCT020 SCT035 BKN070
     FM251800 23015G25KT P6SM VCSH SCT035 BKN090
     FM252200 24007KT P6SM SCT045 SCT090=

USA.gov is the U.S. government's official web portal to all federal, state and local government web resources and services.